createdAt,value
2023-01-08T20:45:49.114Z,9.48
2023-01-08T20:48:17.426Z,8.85
2023-01-08T20:50:47.275Z,8.26
2023-01-08T20:53:15.312Z,7.81
2023-01-08T20:55:44.307Z,7.56
2023-01-08T20:58:12.377Z,7.83
2023-01-08T21:00:40.474Z,8.20
2023-01-08T21:03:08.726Z,8.45
2023-01-08T21:05:38.593Z,8.64
2023-01-08T21:08:07.866Z,8.76
2023-01-08T21:10:36.318Z,8.86
2023-01-08T21:13:04.384Z,8.93
2023-01-08T21:15:36.920Z,8.98
2023-01-08T21:18:05.037Z,9.05
2023-01-08T21:20:33.104Z,9.10
2023-01-08T21:23:01.848Z,9.16
2023-01-08T21:25:31.126Z,9.21
2023-01-08T21:27:59.094Z,9.25
2023-01-08T21:30:27.689Z,9.26
2023-01-08T21:32:56.547Z,9.30
2023-01-08T21:35:26.689Z,9.33
2023-01-08T21:37:54.604Z,9.35
2023-01-08T21:40:22.994Z,9.37
2023-01-08T21:43:09.610Z,9.30
2023-01-08T21:45:37.894Z,8.69
2023-01-08T21:48:06.255Z,8.10
2023-01-08T21:50:34.736Z,7.65
2023-01-08T21:53:21.545Z,7.40
2023-01-08T21:55:49.773Z,7.70
2023-01-08T21:58:17.710Z,8.07
2023-01-08T22:00:46.244Z,8.32
2023-01-08T22:03:14.356Z,8.49
2023-01-08T22:05:42.514Z,8.61
2023-01-08T22:08:15.612Z,8.72
2023-01-08T22:10:43.572Z,8.81
2023-01-08T22:13:11.751Z,8.87
2023-01-08T22:15:39.743Z,8.92
2023-01-08T22:18:07.701Z,8.96
2023-01-08T22:20:35.656Z,9.00
2023-01-08T22:23:03.632Z,9.07
2023-01-08T22:25:31.589Z,9.14
2023-01-08T22:27:59.763Z,9.20
2023-01-08T22:30:28.142Z,9.22
2023-01-08T22:32:56.418Z,9.22
2023-01-08T22:35:24.499Z,9.27
2023-01-08T22:37:52.783Z,9.30
2023-01-08T22:40:20.839Z,9.32
2023-01-08T22:42:48.910Z,9.35
2023-01-08T22:45:17.000Z,9.38
2023-01-08T22:47:45.664Z,9.39
2023-01-08T22:50:13.840Z,9.37
2023-01-08T22:52:41.859Z,9.35
2023-01-08T22:55:10.092Z,9.34
2023-01-08T22:57:38.220Z,9.33
2023-01-08T23:00:09.945Z,9.36
2023-01-08T23:02:38.237Z,9.39
2023-01-08T23:05:06.993Z,9.40
2023-01-08T23:07:34.941Z,9.42
2023-01-08T23:10:03.014Z,9.42
2023-01-08T23:12:34.502Z,9.41
2023-01-08T23:15:04.583Z,9.42
2023-01-08T23:17:38.987Z,9.41
2023-01-08T23:20:13.114Z,9.35
2023-01-08T23:22:42.004Z,9.26
2023-01-08T23:25:09.975Z,9.21
2023-01-08T23:27:38.351Z,9.18
2023-01-08T23:30:07.377Z,9.15
2023-01-08T23:32:35.421Z,9.16
2023-01-08T23:35:03.694Z,9.18
2023-01-08T23:37:33.973Z,9.20
2023-01-08T23:40:02.009Z,9.22
2023-01-08T23:42:30.263Z,9.27
2023-01-08T23:44:58.334Z,9.29
2023-01-08T23:47:26.252Z,9.28
2023-01-08T23:49:54.268Z,9.29
2023-01-08T23:52:22.234Z,9.32
2023-01-08T23:54:50.304Z,9.33
2023-01-08T23:57:18.275Z,9.36
2023-01-08T23:59:46.243Z,9.36
